METAR AND TAF INFORMATION
METAR FOR KIFP
ADDS - METARS form results

(1611 UTC 19 February 2018)
Data provider http://aviationweather.gov/adds/metars/
 
METAR text: KIFP 191555Z 25028G46KT 10SM FEW075 FEW090 SCT110 12/M15 A2969 RMK AO2
Conditions at: KIFP (BULLHEAD CITY , AZ, US) observed 1555 UTC 19 February 2018
Temperature: 12.0°C (54°F)
Dewpoint: -15.0°C (5°F) [RH = 14%]
Pressure (altimeter): 29.69 inches Hg (1005.5 mb)
Winds: from the WSW (250 degrees) at 32 MPH (28 knots; 14.6 m/s)
gusting to 53 MPH (46 knots; 23.9 m/s)
Visibility: 10 or more miles (16+ km)
Ceiling: at least 12,000 feet AGL
Clouds: few clouds at 7500 feet AGL
few clouds at 9000 feet AGL
scattered clouds at 11000 feet AGL
Weather: no significant weather observed at this time

METAR text: KIFP 191535Z 26029G38KT 10SM FEW070 SCT080 BKN110 12/M11 A2968 RMK AO2
Conditions at: KIFP (BULLHEAD CITY , AZ, US) observed 1535 UTC 19 February 2018
Temperature: 12.0°C (54°F)
Dewpoint: -11.0°C (12°F) [RH = 19%]
Pressure (altimeter): 29.68 inches Hg (1005.2 mb)
Winds: from the W (260 degrees) at 33 MPH (29 knots; 15.1 m/s)
gusting to 44 MPH (38 knots; 19.8 m/s)
Visibility: 10 or more miles (16+ km)
Ceiling: 11000 feet AGL
Clouds: few clouds at 7000 feet AGL
scattered clouds at 8000 feet AGL
broken clouds at 11000 feet AGL
Weather: no significant weather observed at this time

METAR text: KIFP 191515Z 27022G39KT 10SM BKN065 BKN080 OVC100 13/M08 A2968 RMK AO2
Conditions at: KIFP (BULLHEAD CITY , AZ, US) observed 1515 UTC 19 February 2018
Temperature: 13.0°C (55°F)
Dewpoint: -8.0°C (18°F) [RH = 22%]
Pressure (altimeter): 29.68 inches Hg (1005.2 mb)
Winds: from the W (270 degrees) at 25 MPH (22 knots; 11.4 m/s)
gusting to 45 MPH (39 knots; 20.3 m/s)
Visibility: 10 or more miles (16+ km)
Ceiling: 6500 feet AGL
Clouds: broken clouds at 6500 feet AGL
broken clouds at 8000 feet AGL
overcast cloud deck at 10000 feet AGL
Weather: no significant weather observed at this time

Forecast for: KIFP (BULLHEAD CITY , AZ, US)
Text: KIFP 191126Z 1912/2012 18010KT P6SM SKC
Forecast period: 1200 to 1700 UTC 19 February 2018
Forecast type: FROM: standard forecast or significant change
Winds: from the S (180 degrees) at 12 MPH (10 knots; 5.2 m/s)
Visibility: 6 or more miles (10+ km)
Clouds: clear skies
Weather: no significant weather forecast for this period
Text: FM191700 20015G25KT P6SM SCT120
Forecast period: 1700 UTC 19 February 2018 to 0400 UTC 20 February 2018
Forecast type: FROM: standard forecast or significant change
Winds: from the SSW (200 degrees) at 17 MPH (15 knots; 7.8 m/s)
gusting to 29 MPH (25 knots; 13.0 m/s)
Visibility: 6 or more miles (10+ km)
Clouds: scattered clouds at 12000 feet AGL
Weather: no significant weather forecast for this period
Text: FM200400 34007KT P6SM FEW120
Forecast period: 0400 to 1200 UTC 20 February 2018
Forecast type: FROM: standard forecast or significant change
Winds: from the NNW (340 degrees) at 8 MPH (7 knots; 3.6 m/s)
Visibility: 6 or more miles (10+ km)
Clouds: few clouds at 12000 feet AGL
Weather: no significant weather forecast for this period

 AIRPORT MAP

 RUNWAY INFORMATION
Runway 16 Runway length 7520 ft Runway width 150 ft
Runway elevation 622 ft Runway displaced threshold 0 ft Runway heading 177
Runway 34 Runway length 7520 ft Runway width 150 ft
Runway elevation 695 ft Runway displaced threshold 0 ft Runway heading 357

 AIRPORT FREQUENCIES
Type CLD Name LA CNTR CL Frequency 118.25 MHZ
Type CNTR Name LOS ANGELE Frequency 134.65 MHZ
Type CTAF Name CTAF Frequency 123.9 MHZ
Type GND Name GND Frequency 118.25 MHZ
Type TWR Name BULLHEAD T Frequency 123.9 MHZ

 AIRPORT NEAR NAVIGATION AIDS



Powered by Virtual Airlines Manager [v2.6.2]